createdAt,value
2018-05-26T00:03:24.287Z,14.8
2018-05-26T00:08:54.286Z,14.8
2018-05-26T00:14:23.287Z,14.8
2018-05-26T00:19:52.281Z,14.7
2018-05-26T00:20:54.515Z,14.7
2018-05-26T00:25:22.374Z,14.7
2018-05-26T00:30:51.542Z,14.7
2018-05-26T00:36:21.293Z,14.6
2018-05-26T00:40:29.936Z,14.6
2018-05-26T00:41:51.277Z,14.5
2018-05-26T00:47:20.389Z,14.4
2018-05-26T00:52:49.264Z,14.2
2018-05-26T00:58:19.192Z,14
2018-05-26T01:03:48.221Z,13.9
2018-05-26T01:09:17.098Z,13.9
2018-05-26T01:14:46.931Z,13.9
2018-05-26T01:14:52.085Z,13.9
2018-05-26T01:20:15.803Z,13.8
2018-05-26T01:25:44.706Z,13.6
2018-05-26T01:31:14.583Z,13.5
2018-05-26T01:36:44.790Z,13.4
2018-05-26T01:38:11.949Z,13.4
2018-05-26T01:42:13.330Z,13.3
2018-05-26T01:47:43.167Z,13.2
2018-05-26T01:53:13.006Z,13.2
2018-05-26T01:58:42.876Z,13.2
2018-05-26T02:04:11.700Z,13.1
2018-05-26T02:09:41.598Z,13
2018-05-26T02:15:10.397Z,12.9
2018-05-26T02:17:39.139Z,12.9
2018-05-26T02:20:40.311Z,12.9
2018-05-26T02:26:10.035Z,12.9
2018-05-26T02:31:38.839Z,12.8
2018-05-26T02:37:07.742Z,12.8
2018-05-26T02:42:36.494Z,12.9
2018-05-26T02:48:05.303Z,12.9
2018-05-26T02:51:54.766Z,12.9
2018-05-26T02:53:34.230Z,12.9
2018-05-26T02:59:03.943Z,12.9
2018-05-26T03:04:33.796Z,12.9
2018-05-26T03:10:03.605Z,12.9
2018-05-26T03:15:33.477Z,13
2018-05-26T03:16:52.419Z,13
2018-05-26T03:21:02.344Z,13
2018-05-26T03:26:31.091Z,13
2018-05-26T03:31:59.914Z,12.9
2018-05-26T03:37:28.740Z,12.9
2018-05-26T03:42:57.567Z,12.8
2018-05-26T03:48:26.369Z,12.8
2018-05-26T03:53:56.131Z,12.8
2018-05-26T03:55:15.249Z,12.8
2018-05-26T03:59:24.949Z,12.8
2018-05-26T04:04:54.751Z,12.8
2018-05-26T04:10:23.561Z,12.9
2018-05-26T04:15:53.363Z,13
2018-05-26T04:21:22.272Z,13.1
2018-05-26T04:24:33.820Z,13.1
2018-05-26T04:26:52.088Z,13.3
2018-05-26T04:32:21.012Z,13.4
2018-05-26T04:37:49.927Z,13.5
2018-05-26T04:43:18.710Z,13.6
2018-05-26T04:48:47.603Z,13.8
2018-05-26T04:54:17.595Z,13.9
2018-05-26T04:59:46.462Z,14
2018-05-26T05:05:15.395Z,14.1
2018-05-26T05:10:45.277Z,14.2
2018-05-26T05:16:14.265Z,14.3
2018-05-26T05:21:43.305Z,14.4
2018-05-26T05:27:13.236Z,14.5
2018-05-26T05:32:43.201Z,14.6
2018-05-26T05:38:12.143Z,14.7
2018-05-26T05:43:41.359Z,14.9
2018-05-26T05:49:11.127Z,15
2018-05-26T05:54:40.272Z,15.2
2018-05-26T06:00:09.231Z,15.4
2018-05-26T06:05:39.284Z,15.6
2018-05-26T06:11:08.363Z,15.7
2018-05-26T06:16:38.501Z,15.9
2018-05-26T06:22:07.602Z,16.2
2018-05-26T06:27:37.725Z,16.4
2018-05-26T06:33:06.895Z,16.6
2018-05-26T06:38:37.289Z,16.8
2018-05-26T06:44:06.903Z,17
2018-05-26T06:49:35.564Z,17.2
2018-05-26T06:49:37.353Z,17.2
2018-05-26T06:55:05.922Z,17.4
2018-05-26T07:00:35.057Z,17.6
2018-05-26T07:06:05.331Z,17.8
2018-05-26T07:11:34.902Z,18
2018-05-26T07:17:03.964Z,18.1
2018-05-26T07:22:33.433Z,18.3
2018-05-26T07:28:03.730Z,18.4
2018-05-26T07:33:33.176Z,18.6
2018-05-26T07:39:03.133Z,18.7
2018-05-26T07:39:03.348Z,18.7
2018-05-26T07:44:32.947Z,18.9
2018-05-26T07:50:02.485Z,19.1
2018-05-26T07:55:32.878Z,19.3
2018-05-26T08:01:02.375Z,19.5
2018-05-26T08:06:32.804Z,19.7
2018-05-26T08:12:02.358Z,19.8
2018-05-26T08:17:31.900Z,19.9
2018-05-26T08:23:01.459Z,20
2018-05-26T08:28:32.095Z,20.1
2018-05-26T08:34:01.721Z,20.2
2018-05-26T08:39:31.326Z,20.3
2018-05-26T08:45:01.839Z,20.3
2018-05-26T08:50:32.469Z,20.4
2018-05-26T08:56:02.175Z,20.4
2018-05-26T09:01:31.776Z,20.5
2018-05-26T09:07:01.349Z,20.6
2018-05-26T09:12:31.079Z,20.7
2018-05-26T09:18:00.937Z,20.8
2018-05-26T09:23:31.517Z,20.9
2018-05-26T09:29:01.157Z,21
2018-05-26T09:34:30.759Z,21.1
2018-05-26T09:40:01.568Z,21.1
2018-05-26T09:45:31.227Z,21.2
2018-05-26T09:51:01.992Z,21.2
2018-05-26T09:56:31.669Z,21.3
2018-05-26T10:02:01.362Z,21.5
2018-05-26T10:07:31.292Z,21.5
2018-05-26T10:13:01.924Z,21.6
2018-05-26T10:18:32.819Z,21.7
2018-05-26T10:24:03.357Z,21.8
2018-05-26T10:29:34.128Z,21.9
2018-05-26T10:35:04.844Z,21.9
2018-05-26T10:40:34.639Z,21.9
2018-05-26T10:46:04.486Z,22.1
2018-05-26T10:51:35.220Z,22.3
2018-05-26T10:57:06.087Z,22.4
2018-05-26T11:02:35.907Z,22.6
2018-05-26T11:08:05.795Z,22.7
2018-05-26T11:13:35.659Z,22.8
2018-05-26T11:19:06.583Z,22.9
2018-05-26T11:24:36.508Z,23
2018-05-26T11:30:06.456Z,23.2
2018-05-26T11:35:37.432Z,23.3
2018-05-26T11:41:07.250Z,23.3
2018-05-26T11:46:37.218Z,23.4
2018-05-26T11:52:08.180Z,23.5
2018-05-26T11:57:39.200Z,23.6
2018-05-26T12:03:10.072Z,23.6
2018-05-26T12:03:10.985Z,23.6
2018-05-26T12:08:41.151Z,23.7
2018-05-26T12:08:41.680Z,23.7
2018-05-26T12:14:12.109Z,23.8
2018-05-26T12:14:13.504Z,23.8
2018-05-26T12:19:42.163Z,23.9
2018-05-26T12:25:13.085Z,23.9
2018-05-26T12:25:14.181Z,23.9
2018-05-26T12:30:43.365Z,24
2018-05-26T12:36:14.198Z,24.1
2018-05-26T12:41:45.215Z,24.2
2018-05-26T12:47:16.292Z,24.3
2018-05-26T12:47:16.874Z,24.3
2018-05-26T12:52:46.400Z,24.3
2018-05-26T12:58:17.404Z,24.4
2018-05-26T13:03:48.530Z,24.4
2018-05-26T13:09:19.747Z,24.4
2018-05-26T13:14:49.683Z,24.4
2018-05-26T13:20:19.794Z,24.4
2018-05-26T13:25:49.907Z,24.4
2018-05-26T13:31:21.046Z,24.4
2018-05-26T13:36:51.113Z,24.5
2018-05-26T13:42:21.176Z,24.6
2018-05-26T13:42:21.829Z,24.6
2018-05-26T13:47:52.396Z,24.6
2018-05-26T13:53:22.526Z,24.7
2018-05-26T13:53:23.584Z,24.7
2018-05-26T13:58:52.487Z,24.7
2018-05-26T14:04:22.710Z,24.8
2018-05-26T14:09:52.800Z,24.8
2018-05-26T14:15:22.960Z,24.9
2018-05-26T14:20:54.159Z,24.9
2018-05-26T14:26:24.249Z,25
2018-05-26T14:31:55.491Z,25
2018-05-26T14:37:26.578Z,25
2018-05-26T14:42:56.734Z,24.9
2018-05-26T14:48:26.899Z,24.8
2018-05-26T14:53:57.133Z,24.7
2018-05-26T14:59:28.220Z,24.7
2018-05-26T15:04:58.368Z,24.8
2018-05-26T15:10:28.453Z,24.8
2018-05-26T15:15:58.607Z,24.8
2018-05-26T15:21:29.749Z,24.7
2018-05-26T15:26:59.890Z,24.6
2018-05-26T15:32:30.007Z,24.6
2018-05-26T15:38:00.428Z,24.6
2018-05-26T15:43:31.282Z,24.6
2018-05-26T15:49:02.410Z,24.6
2018-05-26T15:54:32.512Z,24.6
2018-05-26T16:00:02.885Z,24.5
2018-05-26T16:05:33.730Z,24.5
2018-05-26T16:11:04.868Z,24.5
2018-05-26T16:16:34.987Z,24.4
2018-05-26T16:22:05.111Z,24.4
2018-05-26T16:27:36.185Z,24.5
2018-05-26T16:33:07.319Z,24.5
2018-05-26T16:38:38.450Z,24.5
2018-05-26T16:44:08.682Z,24.4
2018-05-26T16:49:38.655Z,24.4
2018-05-26T16:55:09.769Z,24.5
2018-05-26T17:00:40.909Z,24.5
2018-05-26T17:06:11.044Z,24.6
2018-05-26T17:11:41.221Z,24.4
2018-05-26T17:17:11.279Z,24.4
2018-05-26T17:22:42.362Z,24.3
2018-05-26T17:28:13.659Z,24.2
2018-05-26T17:33:44.521Z,24
2018-05-26T17:39:15.554Z,23.8
2018-05-26T17:44:46.529Z,23.6
2018-05-26T17:50:17.551Z,23.5
2018-05-26T17:55:48.581Z,23.3
2018-05-26T18:01:19.436Z,23.2
2018-05-26T18:06:50.547Z,23.1
2018-05-26T18:12:21.327Z,23
2018-05-26T18:17:52.533Z,22.9
2018-05-26T18:23:22.093Z,22.8
2018-05-26T18:28:53.094Z,22.7
2018-05-26T18:34:22.900Z,22.6
2018-05-26T18:39:52.830Z,22.5
2018-05-26T18:45:23.929Z,22.4
2018-05-26T18:50:53.544Z,22.3
2018-05-26T18:56:24.313Z,22.2
2018-05-26T19:01:55.101Z,22
2018-05-26T19:07:25.978Z,21.9
2018-05-26T19:12:55.690Z,21.7
2018-05-26T19:18:26.471Z,21.6
2018-05-26T19:23:56.203Z,21.5
2018-05-26T19:29:27.186Z,21.4
2018-05-26T19:34:56.694Z,21.2
2018-05-26T19:40:26.402Z,21.1
2018-05-26T19:45:56.167Z,21
2018-05-26T19:51:25.888Z,20.9
2018-05-26T19:56:55.607Z,20.8
2018-05-26T20:02:26.237Z,20.7
2018-05-26T20:07:56.124Z,20.7
2018-05-26T20:13:26.712Z,20.6
2018-05-26T20:18:57.336Z,20.6
2018-05-26T20:24:27.978Z,20.5
2018-05-26T20:29:57.632Z,20.4
2018-05-26T20:35:28.358Z,20.3
2018-05-26T20:40:58.950Z,20.2
2018-05-26T20:46:28.837Z,20.1
2018-05-26T20:51:59.350Z,20
2018-05-26T20:57:29.796Z,19.9
2018-05-26T21:02:59.394Z,19.8
2018-05-26T21:08:28.946Z,19.7
2018-05-26T21:13:58.527Z,19.7
2018-05-26T21:19:29.111Z,19.7
2018-05-26T21:24:58.636Z,19.7
2018-05-26T21:30:29.239Z,19.7
2018-05-26T21:35:59.859Z,19.7
2018-05-26T21:41:30.383Z,19.7
2018-05-26T21:47:01.105Z,19.7
2018-05-26T21:52:30.546Z,19.6
2018-05-26T21:52:31.509Z,19.6
2018-05-26T21:58:01.073Z,19.6
2018-05-26T22:03:30.586Z,19.5
2018-05-26T22:14:31.809Z,19.5
2018-05-26T22:14:33.583Z,19.5
2018-05-26T22:20:02.349Z,19.4
2018-05-26T22:25:32.613Z,19.3
2018-05-26T22:31:03.066Z,19.3
2018-05-26T22:31:03.590Z,19.3
2018-05-26T22:36:32.645Z,19.2
2018-05-26T22:36:34.625Z,19.2
2018-05-26T22:42:02.985Z,19.2
2018-05-26T22:42:03.953Z,19.2
2018-05-26T22:47:32.455Z,19.2
2018-05-26T22:47:33.202Z,19.2
2018-05-26T22:53:01.998Z,19.1
2018-05-26T22:53:02.391Z,19.1
2018-05-26T22:58:31.609Z,19
2018-05-26T22:58:33.087Z,19
2018-05-26T23:04:00.799Z,19
2018-05-26T23:04:01.358Z,19
2018-05-26T23:09:30.267Z,18.9
2018-05-26T23:09:36.980Z,18.9
2018-05-26T23:15:00.724Z,18.8
2018-05-26T23:15:03.855Z,18.8
2018-05-26T23:20:30.133Z,18.7
2018-05-26T23:20:30.822Z,18.7
2018-05-26T23:25:59.541Z,18.7
2018-05-26T23:26:00.463Z,18.7
2018-05-26T23:31:29.987Z,18.6
2018-05-26T23:36:59.282Z,18.5
2018-05-26T23:42:29.724Z,18.4
2018-05-26T23:47:59.061Z,18.3
2018-05-26T23:53:28.380Z,18.3
2018-05-26T23:53:29.470Z,18.3
2018-05-26T23:58:57.723Z,18.2
2018-05-26T23:58:59.239Z,18.2
